Time;durP1;ratioP1;P1;durP2;ratioP2;P2;SDS_P1;SDS_P2;PMS_P1;PMS_P2;Temp;Humidity;BMP_temperature;BMP_pressure;BME280_temperature;BME280_humidity;BME280_pressure;Samples;Min_cycle;Max_cycle;Signal;HPM_P1;HPM_P2
2023/08/31 00:01:09;;;;;;;;;;;19.80;90.10;;;;;;5054081;28;19909;-72
2023/08/31 00:03:34;;;;;;;;;;;19.80;90.10;;;;;;5055437;28;20359;-70
2023/08/31 00:06:01;;;;;;;;;;;19.80;90.10;;;;;;5055354;28;19962;-71
2023/08/31 00:08:27;;;;;;;;;;;19.80;90.10;;;;;;5055629;28;20026;-71
2023/08/31 00:11:00;;;;;;;;;;;19.80;90.10;;;;;;5036949;28;19908;-71
2023/08/31 00:13:26;;;;;;;;;;;19.80;90.10;;;;;;5054978;28;19966;-72
2023/08/31 00:15:58;;;;;;;;;;;19.70;90.00;;;;;;5055113;28;19916;-73
2023/08/31 00:18:24;;;;;;;;;;;19.80;90.10;;;;;;5055080;28;19909;-72
2023/08/31 00:20:50;;;;;;;;;;;19.80;90.10;;;;;;5055049;28;19909;-71
2023/08/31 00:23:15;;;;;;;;;;;19.70;90.00;;;;;;5037174;28;19909;-72
2023/08/31 00:25:43;;;;;;;;;;;19.80;90.10;;;;;;5054996;28;20000;-72
2023/08/31 00:28:09;;;;;;;;;;;19.80;90.00;;;;;;5054652;28;19909;-72
2023/08/31 00:30:34;;;;;;;;;;;19.80;90.00;;;;;;5054766;28;19909;-72
2023/08/31 00:33:00;;;;;;;;;;;19.80;90.00;;;;;;5054410;28;19920;-73
2023/08/31 00:35:27;;;;;;;;;;;19.80;90.00;;;;;;5054727;28;20315;-73
2023/08/31 00:37:56;;;;;;;;;;;19.80;90.00;;;;;;5054607;28;19916;-73
2023/08/31 00:40:22;;;;;;;;;;;19.70;90.00;;;;;;5036732;28;19962;-73
2023/08/31 00:42:47;;;;;;;;;;;19.80;90.10;;;;;;5054597;28;19912;-71
2023/08/31 00:45:13;;;;;;;;;;;19.70;90.00;;;;;;5054501;28;19909;-72
2023/08/31 00:47:38;;;;;;;;;;;19.70;90.00;;;;;;5054466;28;19921;-72
2023/08/31 00:50:07;;;;;;;;;;;19.70;90.00;;;;;;5054381;28;19958;-74
2023/08/31 00:52:32;;;;;;;;;;;19.70;90.00;;;;;;5054269;28;19916;-73
2023/08/31 00:54:58;;;;;;;;;;;19.70;90.00;;;;;;5054173;28;19921;-74
2023/08/31 00:57:26;;;;;;;;;;;19.70;90.00;;;;;;5054348;28;19996;-75
2023/08/31 00:59:51;;;;;;;;;;;19.70;90.00;;;;;;5054049;28;19921;-71
2023/08/31 01:02:20;;;;;;;;;;;19.70;90.00;;;;;;5054296;28;20030;-71
2023/08/31 01:05:03;;;;;;;;;;;19.70;90.00;;;;;;5054313;28;19974;-70
2023/08/31 01:07:48;;;;;;;;;;;19.70;90.00;;;;;;5036411;28;19948;-71
2023/08/31 01:10:26;;;;;;;;;;;19.70;90.00;;;;;;5036255;28;20003;-71
2023/08/31 01:13:01;;;;;;;;;;;19.70;90.00;;;;;;5053814;28;19986;-72
2023/08/31 01:15:31;;;;;;;;;;;19.70;90.00;;;;;;5054177;28;19975;-71
2023/08/31 01:17:57;;;;;;;;;;;19.80;90.00;;;;;;5053685;28;19909;-71
2023/08/31 01:20:32;;;;;;;;;;;19.70;90.00;;;;;;5053929;28;19908;-72
2023/08/31 01:23:10;;;;;;;;;;;19.70;90.00;;;;;;5053660;28;20305;-71
2023/08/31 01:25:36;;;;;;;;;;;19.70;90.00;;;;;;5053569;28;20360;-72
2023/08/31 01:28:03;;;;;;;;;;;19.70;90.00;;;;;;5053732;28;19946;-71
2023/08/31 01:30:32;;;;;;;;;;;19.70;89.90;;;;;;5053552;28;20332;-71
2023/08/31 01:32:57;;;;;;;;;;;19.70;90.00;;;;;;5053751;28;19917;-71
2023/08/31 01:35:24;;;;;;;;;;;19.80;90.00;;;;;;5053771;28;19920;-72
2023/08/31 01:37:51;;;;;;;;;;;19.70;89.90;;;;;;5053713;28;19909;-72
2023/08/31 01:40:19;;;;;;;;;;;19.70;90.00;;;;;;5053492;28;19932;-73
2023/08/31 01:42:46;;;;;;;;;;;19.70;90.00;;;;;;5053386;28;19916;-71
2023/08/31 01:45:14;;;;;;;;;;;19.70;89.90;;;;;;5053324;28;20046;-67
2023/08/31 01:47:39;;;;;;;;;;;19.70;89.90;;;;;;5053349;28;19920;-71
2023/08/31 01:50:05;;;;;;;;;;;19.70;90.00;;;;;;5053962;28;20008;-71
2023/08/31 01:52:31;;;;;;;;;;;19.70;90.00;;;;;;5053548;28;19924;-70
2023/08/31 01:54:56;;;;;;;;;;;19.70;90.00;;;;;;5053941;28;20016;-72
2023/08/31 01:57:22;;;;;;;;;;;19.70;90.00;;;;;;5053290;28;19915;-72
2023/08/31 01:59:47;;;;;;;;;;;19.70;90.00;;;;;;5053573;28;19955;-71
2023/08/31 02:02:14;;;;;;;;;;;19.70;90.00;;;;;;5053801;28;19909;-72
2023/08/31 02:04:39;;;;;;;;;;;19.70;90.00;;;;;;5053527;28;20394;-72
2023/08/31 02:07:05;;;;;;;;;;;19.70;90.00;;;;;;5053220;28;19909;-71
2023/08/31 02:09:30;;;;;;;;;;;19.70;90.00;;;;;;5053523;28;20360;-73
2023/08/31 02:11:56;;;;;;;;;;;19.70;90.00;;;;;;5053391;28;19928;-71
2023/08/31 02:14:22;;;;;;;;;;;19.70;90.00;;;;;;5053180;28;20232;-70
2023/08/31 02:16:47;;;;;;;;;;;19.70;90.00;;;;;;5035681;28;19909;-69
2023/08/31 02:19:13;;;;;;;;;;;19.70;90.00;;;;;;5053469;28;19909;-69
2023/08/31 02:21:38;;;;;;;;;;;19.70;90.00;;;;;;5053355;28;19909;-69
2023/08/31 02:24:04;;;;;;;;;;;19.70;90.00;;;;;;5054238;28;19908;-68
2023/08/31 02:26:30;;;;;;;;;;;19.70;90.00;;;;;;5056987;28;20375;-69
2023/08/31 02:28:55;;;;;;;;;;;19.70;90.00;;;;;;5057454;28;19962;-69
2023/08/31 02:31:20;;;;;;;;;;;19.70;90.00;;;;;;5057058;28;20352;-69
2023/08/31 02:33:46;;;;;;;;;;;19.70;90.00;;;;;;5057109;28;19966;-68
2023/08/31 02:36:12;;;;;;;;;;;19.70;90.00;;;;;;5057458;28;19909;-69
2023/08/31 02:38:37;;;;;;;;;;;19.70;90.00;;;;;;5056707;28;19916;-69
2023/08/31 02:41:03;;;;;;;;;;;19.70;90.00;;;;;;5056951;28;19916;-68
2023/08/31 02:43:30;;;;;;;;;;;19.70;90.00;;;;;;5056889;28;20379;-69
2023/08/31 02:45:59;;;;;;;;;;;19.70;90.00;;;;;;5056600;28;19909;-69
2023/08/31 02:48:25;;;;;;;;;;;19.70;90.00;;;;;;5056870;28;19909;-68
2023/08/31 02:50:50;;;;;;;;;;;19.70;90.00;;;;;;5056614;28;19998;-71
2023/08/31 02:53:16;;;;;;;;;;;19.70;90.00;;;;;;5056358;28;20391;-70
2023/08/31 02:55:42;;;;;;;;;;;19.60;89.90;;;;;;5056556;28;19916;-71
2023/08/31 02:58:07;;;;;;;;;;;19.70;90.00;;;;;;5056230;28;20387;-70
2023/08/31 03:00:33;;;;;;;;;;;19.70;90.00;;;;;;5056223;28;19908;-69
2023/08/31 03:02:59;;;;;;;;;;;19.60;90.00;;;;;;5056471;28;20386;-70
2023/08/31 03:05:24;;;;;;;;;;;19.70;90.00;;;;;;5056101;28;19908;-71
2023/08/31 03:07:49;;;;;;;;;;;19.60;89.90;;;;;;5056318;28;19909;-72
2023/08/31 03:10:15;;;;;;;;;;;19.70;90.00;;;;;;5055802;28;19932;-71
2023/08/31 03:12:40;;;;;;;;;;;19.60;90.00;;;;;;5056166;28;19916;-71
2023/08/31 03:15:07;;;;;;;;;;;19.60;89.90;;;;;;5055878;28;19913;-70
2023/08/31 03:17:32;;;;;;;;;;;19.60;89.90;;;;;;5056142;28;19916;-70
2023/08/31 03:19:58;;;;;;;;;;;19.60;89.90;;;;;;5056153;28;19909;-71
2023/08/31 03:22:23;;;;;;;;;;;19.60;89.90;;;;;;5055718;28;19996;-70
2023/08/31 03:24:49;;;;;;;;;;;19.60;90.00;;;;;;5055796;28;20379;-71
2023/08/31 03:27:15;;;;;;;;;;;19.60;89.90;;;;;;5056335;28;19970;-69
2023/08/31 03:29:41;;;;;;;;;;;19.70;90.00;;;;;;5056234;28;19913;-71
2023/08/31 03:32:06;;;;;;;;;;;19.70;90.00;;;;;;5055781;28;20250;-71
2023/08/31 03:34:32;;;;;;;;;;;19.70;89.90;;;;;;5055971;28;19913;-71
2023/08/31 03:36:58;;;;;;;;;;;19.60;89.90;;;;;;5055568;28;19939;-71
2023/08/31 03:39:24;;;;;;;;;;;19.60;89.90;;;;;;5055923;28;19913;-71
2023/08/31 03:41:49;;;;;;;;;;;19.70;90.00;;;;;;5055544;28;19931;-71
2023/08/31 03:44:15;;;;;;;;;;;19.60;89.90;;;;;;5056076;28;19946;-70
2023/08/31 03:46:40;;;;;;;;;;;19.60;89.90;;;;;;5055735;28;19929;-71
2023/08/31 03:49:06;;;;;;;;;;;19.70;90.00;;;;;;5055593;28;19915;-70
2023/08/31 03:51:31;;;;;;;;;;;19.60;89.90;;;;;;5055510;28;19916;-71
2023/08/31 03:53:57;;;;;;;;;;;19.70;90.00;;;;;;5055640;28;20275;-71
2023/08/31 03:56:22;;;;;;;;;;;19.60;89.90;;;;;;5055539;28;19908;-71
2023/08/31 03:58:48;;;;;;;;;;;19.70;90.00;;;;;;5055185;28;20004;-71
2023/08/31 04:01:14;;;;;;;;;;;19.60;89.90;;;;;;5055801;28;19909;-70
2023/08/31 04:03:40;;;;;;;;;;;19.70;90.00;;;;;;5055488;28;19908;-71
2023/08/31 04:06:05;;;;;;;;;;;19.60;90.00;;;;;;5054892;28;20257;-70
2023/08/31 04:08:31;;;;;;;;;;;19.60;89.90;;;;;;5055608;28;19920;-71
2023/08/31 04:10:56;;;;;;;;;;;19.60;89.90;;;;;;5054997;28;20321;-71
2023/08/31 04:13:22;;;;;;;;;;;19.60;89.90;;;;;;5054850;28;19913;-71
2023/08/31 04:15:47;;;;;;;;;;;19.60;89.90;;;;;;5054865;28;19976;-70
2023/08/31 04:18:13;;;;;;;;;;;19.60;89.90;;;;;;5055058;28;19995;-70
2023/08/31 04:20:39;;;;;;;;;;;19.60;89.90;;;;;;5054735;28;19908;-71
2023/08/31 04:23:04;;;;;;;;;;;19.60;89.90;;;;;;5055059;28;20332;-71
2023/08/31 04:25:33;;;;;;;;;;;19.60;90.00;;;;;;5037063;28;19913;-71
2023/08/31 04:27:58;;;;;;;;;;;19.60;90.00;;;;;;5054906;28;19916;-71
2023/08/31 04:30:24;;;;;;;;;;;19.60;89.90;;;;;;5054920;28;19909;-72
2023/08/31 04:32:50;;;;;;;;;;;19.60;89.90;;;;;;5054833;28;19920;-72
2023/08/31 04:35:15;;;;;;;;;;;19.60;89.90;;;;;;5054782;28;19975;-71
2023/08/31 04:37:40;;;;;;;;;;;19.60;90.00;;;;;;5055124;28;19966;-72
2023/08/31 04:40:08;;;;;;;;;;;19.60;90.00;;;;;;5054968;28;19956;-71
2023/08/31 04:42:34;;;;;;;;;;;19.60;90.00;;;;;;5054715;28;20378;-72
2023/08/31 04:44:59;;;;;;;;;;;19.60;90.00;;;;;;5054606;28;19909;-72
2023/08/31 04:47:25;;;;;;;;;;;19.60;90.00;;;;;;5054148;28;20355;-72
2023/08/31 04:49:50;;;;;;;;;;;19.60;90.00;;;;;;5054821;28;19982;-72
2023/08/31 04:52:16;;;;;;;;;;;19.60;90.00;;;;;;5054390;28;20004;-71
2023/08/31 04:54:41;;;;;;;;;;;19.60;90.00;;;;;;5054127;28;20322;-72
2023/08/31 04:57:07;;;;;;;;;;;19.60;89.90;;;;;;5054679;28;19963;-71
2023/08/31 04:59:32;;;;;;;;;;;19.60;89.90;;;;;;5054269;28;19908;-72
2023/08/31 05:01:58;;;;;;;;;;;19.60;90.00;;;;;;5054251;28;19912;-72
2023/08/31 05:04:23;;;;;;;;;;;19.60;90.00;;;;;;5054069;28;20344;-72
2023/08/31 05:06:49;;;;;;;;;;;19.60;90.00;;;;;;5053717;28;19954;-71
2023/08/31 05:09:14;;;;;;;;;;;19.60;90.00;;;;;;5054087;28;19975;-72
2023/08/31 05:11:40;;;;;;;;;;;19.60;90.00;;;;;;5036148;28;19917;-71
2023/08/31 05:14:05;;;;;;;;;;;19.60;90.00;;;;;;5036216;28;19913;-72
2023/08/31 05:16:31;;;;;;;;;;;19.60;90.00;;;;;;5053741;28;19912;-72
2023/08/31 05:18:56;;;;;;;;;;;19.60;90.00;;;;;;5054002;28;19916;-73
2023/08/31 05:21:21;;;;;;;;;;;19.60;90.00;;;;;;5053985;28;19909;-72
2023/08/31 05:23:47;;;;;;;;;;;19.60;90.00;;;;;;5053703;28;19978;-72
2023/08/31 05:26:13;;;;;;;;;;;19.60;90.00;;;;;;5054195;28;19915;-72
2023/08/31 05:28:39;;;;;;;;;;;19.60;90.00;;;;;;5054073;28;19916;-72
2023/08/31 05:31:05;;;;;;;;;;;19.60;90.00;;;;;;5053816;28;19909;-72
2023/08/31 05:33:33;;;;;;;;;;;19.50;90.00;;;;;;5053857;28;19920;-73
2023/08/31 05:36:03;;;;;;;;;;;19.50;90.00;;;;;;5053310;28;20003;-73
2023/08/31 05:38:29;;;;;;;;;;;19.60;90.00;;;;;;5053725;28;19908;-73
2023/08/31 05:41:02;;;;;;;;;;;19.50;90.00;;;;;;5053497;28;20003;-72
2023/08/31 05:43:28;;;;;;;;;;;19.50;90.00;;;;;;5053414;28;20256;-73
2023/08/31 05:45:53;;;;;;;;;;;19.50;90.00;;;;;;5035584;28;19937;-74
2023/08/31 05:48:19;;;;;;;;;;;19.50;90.00;;;;;;5053899;28;19909;-72
2023/08/31 05:50:44;;;;;;;;;;;19.50;90.00;;;;;;5053379;28;19913;-71
2023/08/31 05:53:10;;;;;;;;;;;19.50;90.00;;;;;;5053503;28;19920;-71
2023/08/31 05:55:35;;;;;;;;;;;19.50;90.00;;;;;;5053847;28;19913;-72
2023/08/31 05:58:01;;;;;;;;;;;19.50;90.00;;;;;;5053475;28;19913;-72
2023/08/31 06:00:26;;;;;;;;;;;19.50;90.00;;;;;;5056792;28;19916;-72
2023/08/31 06:02:52;;;;;;;;;;;19.50;90.00;;;;;;5057489;28;19915;-72
2023/08/31 06:05:17;;;;;;;;;;;19.50;90.00;;;;;;5039311;28;20391;-70
2023/08/31 06:07:43;;;;;;;;;;;19.50;90.00;;;;;;5057259;28;19916;-71
2023/08/31 06:10:09;;;;;;;;;;;19.50;90.00;;;;;;5057367;28;19916;-70
2023/08/31 06:12:35;;;;;;;;;;;19.50;90.00;;;;;;5057504;28;19912;-71
2023/08/31 06:15:00;;;;;;;;;;;19.50;90.00;;;;;;5057582;28;20016;-71
2023/08/31 06:17:26;;;;;;;;;;;19.50;90.00;;;;;;5057135;28;19931;-70
2023/08/31 06:19:51;;;;;;;;;;;19.50;90.00;;;;;;5057370;28;19917;-71
2023/08/31 06:22:18;;;;;;;;;;;19.50;90.00;;;;;;5056779;28;19909;-67
2023/08/31 06:24:43;;;;;;;;;;;19.50;90.00;;;;;;5039210;28;19909;-71
2023/08/31 06:27:09;;;;;;;;;;;19.50;90.00;;;;;;5039236;28;19916;-71
2023/08/31 06:29:35;;;;;;;;;;;19.50;90.00;;;;;;5057189;28;20074;-71
2023/08/31 06:32:00;;;;;;;;;;;19.50;90.00;;;;;;5056764;28;19917;-71
2023/08/31 06:34:25;;;;;;;;;;;19.50;90.00;;;;;;5056787;28;20425;-72
2023/08/31 06:36:51;;;;;;;;;;;19.50;90.00;;;;;;5057019;28;20015;-72
2023/08/31 06:39:16;;;;;;;;;;;19.50;90.00;;;;;;5056623;28;20381;-71
2023/08/31 06:41:42;;;;;;;;;;;19.50;90.00;;;;;;5038868;28;19909;-71
2023/08/31 06:44:07;;;;;;;;;;;19.50;90.00;;;;;;5038936;28;19916;-71
2023/08/31 06:46:37;;;;;;;;;;;19.50;90.00;;;;;;5056457;28;19921;-72
2023/08/31 06:49:04;;;;;;;;;;;19.50;90.00;;;;;;5056786;28;19909;-71
2023/08/31 06:51:30;;;;;;;;;;;19.50;90.00;;;;;;5056700;28;20387;-71
2023/08/31 06:53:56;;;;;;;;;;;19.50;90.00;;;;;;5038764;28;19916;-71
2023/08/31 06:56:21;;;;;;;;;;;19.50;90.00;;;;;;5056734;28;20106;-71
2023/08/31 06:58:46;;;;;;;;;;;19.50;90.00;;;;;;5056592;28;19908;-71
2023/08/31 07:01:12;;;;;;;;;;;19.50;90.00;;;;;;5055991;28;20042;-71
2023/08/31 07:03:38;;;;;;;;;;;19.50;90.20;;;;;;5056428;28;19912;-71
2023/08/31 07:06:03;;;;;;;;;;;19.50;90.00;;;;;;5056414;28;19912;-71
2023/08/31 07:08:30;;;;;;;;;;;19.50;90.00;;;;;;5056312;28;19913;-71
2023/08/31 07:10:56;;;;;;;;;;;19.50;90.00;;;;;;5055838;28;19935;-71
2023/08/31 07:13:21;;;;;;;;;;;19.50;90.00;;;;;;5056288;28;20016;-71
2023/08/31 07:15:48;;;;;;;;;;;19.50;90.00;;;;;;5056193;28;19935;-71
2023/08/31 07:18:14;;;;;;;;;;;19.50;90.00;;;;;;5056134;28;20344;-71
2023/08/31 07:20:40;;;;;;;;;;;19.50;90.00;;;;;;5056229;28;19909;-70
2023/08/31 07:23:05;;;;;;;;;;;19.50;90.00;;;;;;5056221;28;19995;-71
2023/08/31 07:25:31;;;;;;;;;;;19.50;90.00;;;;;;5055683;28;19912;-72
2023/08/31 07:27:56;;;;;;;;;;;19.50;90.00;;;;;;5055620;28;19927;-72
2023/08/31 07:30:21;;;;;;;;;;;19.50;90.00;;;;;;5038083;28;20267;-72
2023/08/31 07:32:47;;;;;;;;;;;19.50;90.00;;;;;;5055708;28;19913;-72
2023/08/31 07:35:12;;;;;;;;;;;19.50;90.00;;;;;;5055383;28;19958;-72
2023/08/31 07:37:38;;;;;;;;;;;19.50;90.00;;;;;;5055784;28;19909;-72
2023/08/31 07:40:08;;;;;;;;;;;19.50;90.00;;;;;;5055799;28;19909;-71
2023/08/31 07:42:34;;;;;;;;;;;19.50;90.00;;;;;;5055340;28;20283;-71
2023/08/31 07:44:59;;;;;;;;;;;19.50;90.00;;;;;;5055709;28;19909;-71
2023/08/31 07:47:25;;;;;;;;;;;19.50;90.00;;;;;;5055733;28;19921;-71
2023/08/31 07:49:50;;;;;;;;;;;19.50;90.00;;;;;;5055337;28;20343;-71
2023/08/31 07:52:16;;;;;;;;;;;19.50;90.00;;;;;;5055583;28;19920;-71
2023/08/31 07:54:42;;;;;;;;;;;19.50;90.00;;;;;;5037997;28;19913;-71
2023/08/31 07:57:07;;;;;;;;;;;19.50;90.00;;;;;;5055739;28;20340;-71
2023/08/31 07:59:33;;;;;;;;;;;19.50;90.00;;;;;;5054974;28;19915;-71
2023/08/31 08:01:58;;;;;;;;;;;19.60;90.00;;;;;;5055415;28;19909;-71
2023/08/31 08:04:25;;;;;;;;;;;19.50;90.00;;;;;;5054905;28;19962;-71
2023/08/31 08:06:51;;;;;;;;;;;19.50;90.00;;;;;;5037262;28;19919;-70
2023/08/31 08:09:17;;;;;;;;;;;19.60;90.00;;;;;;5037377;28;19909;-70
2023/08/31 08:11:43;;;;;;;;;;;19.50;90.00;;;;;;5054999;28;19920;-71
2023/08/31 08:14:08;;;;;;;;;;;19.50;90.00;;;;;;5054945;28;19913;-71
2023/08/31 08:16:35;;;;;;;;;;;19.50;90.20;;;;;;5055112;28;19909;-71
2023/08/31 08:19:01;;;;;;;;;;;19.50;90.00;;;;;;5054896;28;20536;-71
2023/08/31 08:21:26;;;;;;;;;;;19.50;90.00;;;;;;5054265;28;19909;-71
2023/08/31 08:23:52;;;;;;;;;;;19.50;90.00;;;;;;5054638;28;20223;-71
2023/08/31 08:26:18;;;;;;;;;;;19.50;90.00;;;;;;5055015;28;19909;-71
2023/08/31 08:28:43;;;;;;;;;;;19.50;90.00;;;;;;5054485;28;19919;-70
2023/08/31 08:31:09;;;;;;;;;;;19.50;90.00;;;;;;5054538;28;20100;-71
2023/08/31 08:33:34;;;;;;;;;;;19.60;90.00;;;;;;5036781;28;19913;-71
2023/08/31 08:36:00;;;;;;;;;;;19.50;90.00;;;;;;5054495;28;19909;-70
2023/08/31 08:38:26;;;;;;;;;;;19.50;90.00;;;;;;5054272;28;20391;-71
2023/08/31 08:40:51;;;;;;;;;;;19.50;89.90;;;;;;5054674;28;19912;-71
2023/08/31 08:43:22;;;;;;;;;;;19.50;90.00;;;;;;5054708;28;20375;-72
2023/08/31 08:45:48;;;;;;;;;;;19.50;90.00;;;;;;5054472;28;19908;-70
2023/08/31 08:48:13;;;;;;;;;;;19.60;90.00;;;;;;5054285;28;19909;-71
2023/08/31 08:50:39;;;;;;;;;;;19.50;90.00;;;;;;5036673;28;19956;-71
2023/08/31 08:53:05;;;;;;;;;;;19.50;90.00;;;;;;5054191;28;20368;-70
2023/08/31 08:55:31;;;;;;;;;;;19.50;90.00;;;;;;5054188;28;20395;-72
2023/08/31 08:57:58;;;;;;;;;;;19.50;90.00;;;;;;5053941;28;19913;-72
2023/08/31 09:00:23;;;;;;;;;;;19.50;89.90;;;;;;5054112;28;19909;-71
2023/08/31 09:02:48;;;;;;;;;;;19.50;89.90;;;;;;5054308;28;19916;-71
2023/08/31 09:05:14;;;;;;;;;;;19.60;90.00;;;;;;5054434;28;19974;-71
2023/08/31 09:07:59;;;;;;;;;;;19.60;90.00;;;;;;5053891;28;19909;-71
2023/08/31 09:10:32;;;;;;;;;;;19.50;89.90;;;;;;5053356;28;19909;-71
2023/08/31 09:12:59;;;;;;;;;;;19.60;90.00;;;;;;5053584;28;19912;-71
2023/08/31 09:15:25;;;;;;;;;;;19.50;89.90;;;;;;5054238;28;19913;-72
2023/08/31 09:17:51;;;;;;;;;;;19.50;89.90;;;;;;5054274;28;19912;-71
2023/08/31 09:20:16;;;;;;;;;;;19.50;89.90;;;;;;5054114;28;20078;-71
2023/08/31 09:22:44;;;;;;;;;;;19.50;89.90;;;;;;5054274;28;20416;-71
2023/08/31 09:25:10;;;;;;;;;;;19.60;89.90;;;;;;5054012;28;19909;-71
2023/08/31 09:27:40;;;;;;;;;;;19.50;89.90;;;;;;5053819;28;19916;-72
2023/08/31 09:30:08;;;;;;;;;;;19.50;89.90;;;;;;5053671;28;19909;-72
2023/08/31 09:32:34;;;;;;;;;;;19.50;89.90;;;;;;5053482;28;19993;-71
2023/08/31 09:35:02;;;;;;;;;;;19.50;89.90;;;;;;5053771;28;20372;-71
2023/08/31 09:37:28;;;;;;;;;;;19.50;89.90;;;;;;5053432;28;19916;-72
2023/08/31 09:39:53;;;;;;;;;;;19.50;89.90;;;;;;5053524;28;19909;-70
2023/08/31 09:42:20;;;;;;;;;;;19.60;89.90;;;;;;5053403;28;19913;-70
2023/08/31 09:44:49;;;;;;;;;;;19.50;89.90;;;;;;5053460;28;19962;-71
2023/08/31 09:47:15;;;;;;;;;;;19.50;89.90;;;;;;5053453;28;19927;-71
2023/08/31 09:49:41;;;;;;;;;;;19.50;89.90;;;;;;5053341;28;20298;-71
2023/08/31 09:52:07;;;;;;;;;;;19.60;89.90;;;;;;5053380;28;20008;-71
2023/08/31 09:54:34;;;;;;;;;;;19.60;89.90;;;;;;5053272;28;19995;-71
2023/08/31 09:57:02;;;;;;;;;;;19.60;89.90;;;;;;5053154;28;19909;-71
2023/08/31 09:59:28;;;;;;;;;;;19.60;89.90;;;;;;5053454;28;19932;-71
2023/08/31 10:01:56;;;;;;;;;;;19.50;89.80;;;;;;5053514;28;19948;-71
2023/08/31 10:04:22;;;;;;;;;;;19.60;89.90;;;;;;5053305;28;20318;-71
2023/08/31 10:06:48;;;;;;;;;;;19.50;89.80;;;;;;5053251;28;19909;-71
2023/08/31 10:09:15;;;;;;;;;;;19.60;89.90;;;;;;5053254;28;19909;-69
2023/08/31 10:11:42;;;;;;;;;;;19.60;89.90;;;;;;5053306;28;19948;-70
2023/08/31 10:14:08;;;;;;;;;;;19.60;89.90;;;;;;5035243;28;19967;-71
2023/08/31 10:16:34;;;;;;;;;;;19.60;89.90;;;;;;5052957;28;19920;-70
2023/08/31 10:18:59;;;;;;;;;;;19.60;89.80;;;;;;5053036;28;19909;-73
2023/08/31 10:21:25;;;;;;;;;;;19.60;89.90;;;;;;5053170;28;20007;-69
2023/08/31 10:23:51;;;;;;;;;;;19.60;89.80;;;;;;5052995;28;19920;-72
2023/08/31 10:26:26;;;;;;;;;;;19.60;89.80;;;;;;5035417;28;19909;-72
2023/08/31 10:28:52;;;;;;;;;;;19.60;89.80;;;;;;5053364;28;19916;-67
2023/08/31 10:31:18;;;;;;;;;;;19.60;89.80;;;;;;5052970;28;19909;-72
2023/08/31 10:33:45;;;;;;;;;;;19.60;89.80;;;;;;5053187;28;20253;-72
2023/08/31 10:36:13;;;;;;;;;;;19.50;89.80;;;;;;5052940;28;20403;-72
2023/08/31 10:38:39;;;;;;;;;;;19.60;89.80;;;;;;5052880;28;20402;-72
2023/08/31 10:41:07;;;;;;;;;;;19.50;89.80;;;;;;5053204;28;19913;-71
2023/08/31 10:43:59;;;;;;;;;;;19.60;89.80;;;;;;5052994;28;19909;-72
2023/08/31 10:46:24;;;;;;;;;;;19.60;89.80;;;;;;5052812;28;19928;-71
2023/08/31 10:48:56;;;;;;;;;;;19.50;89.70;;;;;;5056488;28;19962;-72
2023/08/31 10:51:23;;;;;;;;;;;19.50;89.70;;;;;;5056625;28;19951;-71
2023/08/31 10:53:48;;;;;;;;;;;19.60;89.80;;;;;;5056190;28;20043;-72
2023/08/31 10:56:17;;;;;;;;;;;19.60;89.80;;;;;;5056180;28;20011;-71
2023/08/31 10:58:44;;;;;;;;;;;19.50;89.70;;;;;;5056552;28;20058;-71
2023/08/31 11:01:10;;;;;;;;;;;19.60;89.80;;;;;;5056560;28;19913;-72
2023/08/31 11:04:07;;;;;;;;;;;19.50;89.70;;;;;;5056344;28;20367;-71
2023/08/31 11:06:33;;;;;;;;;;;19.50;89.70;;;;;;5022297;28;20245;-71
2023/08/31 11:08:58;;;;;;;;;;;19.50;89.70;;;;;;5038416;28;19916;-71
2023/08/31 11:11:24;;;;;;;;;;;19.50;89.70;;;;;;5056306;28;20327;-70
2023/08/31 11:13:56;;;;;;;;;;;19.60;89.80;;;;;;5056638;28;19955;-71
2023/08/31 11:16:21;;;;;;;;;;;19.60;90.10;;;;;;5056156;28;19958;-71
2023/08/31 11:18:47;;;;;;;;;;;19.60;89.80;;;;;;5055849;28;20272;-70
2023/08/31 11:21:13;;;;;;;;;;;19.50;89.70;;;;;;5056189;28;19940;-71
2023/08/31 11:23:38;;;;;;;;;;;19.50;89.70;;;;;;5056187;28;19915;-70
2023/08/31 11:26:04;;;;;;;;;;;19.50;89.70;;;;;;5056485;28;19908;-71
2023/08/31 11:28:32;;;;;;;;;;;19.50;89.60;;;;;;5055911;28;19908;-72
2023/08/31 11:30:58;;;;;;;;;;;19.50;89.70;;;;;;5055811;28;20413;-72
2023/08/31 11:33:23;;;;;;;;;;;19.60;89.70;;;;;;5055432;28;19916;-69
2023/08/31 11:35:48;;;;;;;;;;;19.50;89.70;;;;;;5055786;28;20296;-71
2023/08/31 11:38:14;;;;;;;;;;;19.60;89.70;;;;;;5055720;28;20004;-71
2023/08/31 11:40:40;;;;;;;;;;;19.60;89.70;;;;;;5055475;28;20337;-72
2023/08/31 11:43:07;;;;;;;;;;;19.60;89.70;;;;;;5055438;28;19952;-72
2023/08/31 11:45:32;;;;;;;;;;;19.60;89.70;;;;;;5055766;28;19909;-71
2023/08/31 11:47:58;;;;;;;;;;;19.60;89.70;;;;;;5055825;28;19920;-71
2023/08/31 11:50:24;;;;;;;;;;;19.50;89.70;;;;;;5055225;28;20416;-69
2023/08/31 11:52:50;;;;;;;;;;;19.50;89.60;;;;;;5055493;28;19984;-70
2023/08/31 11:55:20;;;;;;;;;;;19.60;89.70;;;;;;5055252;28;19913;-72
2023/08/31 11:57:54;;;;;;;;;;;19.60;89.70;;;;;;5037527;28;20252;-71
2023/08/31 12:00:20;;;;;;;;;;;19.50;90.00;;;;;;5055801;28;19948;-69
2023/08/31 12:02:53;;;;;;;;;;;19.50;89.60;;;;;;5037506;28;19955;-70
2023/08/31 12:05:19;;;;;;;;;;;19.60;90.10;;;;;;5037259;28;20359;-71
2023/08/31 12:07:44;;;;;;;;;;;19.50;89.60;;;;;;5054861;28;20012;-71
2023/08/31 12:10:10;;;;;;;;;;;19.50;90.00;;;;;;5055153;28;19958;-71
2023/08/31 12:12:37;;;;;;;;;;;19.50;89.60;;;;;;5055070;28;19927;-70
2023/08/31 12:15:05;;;;;;;;;;;19.50;89.70;;;;;;5055381;28;19913;-70
2023/08/31 12:17:31;;;;;;;;;;;19.50;89.60;;;;;;5054686;28;20360;-71
2023/08/31 12:20:06;;;;;;;;;;;19.50;89.60;;;;;;5055094;28;19959;-71
2023/08/31 12:22:32;;;;;;;;;;;19.50;89.60;;;;;;5054707;28;19999;-71
2023/08/31 12:24:57;;;;;;;;;;;19.50;89.60;;;;;;5054664;28;19943;-71
2023/08/31 12:27:23;;;;;;;;;;;19.60;89.70;;;;;;5054901;28;19909;-70
2023/08/31 12:29:50;;;;;;;;;;;19.50;89.60;;;;;;5054780;28;19909;-70
2023/08/31 12:32:16;;;;;;;;;;;19.50;89.60;;;;;;5054535;28;20356;-70
2023/08/31 12:34:41;;;;;;;;;;;19.50;89.60;;;;;;5054516;28;19924;-70
2023/08/31 12:37:07;;;;;;;;;;;19.50;89.60;;;;;;5036605;28;19913;-70
2023/08/31 12:39:32;;;;;;;;;;;19.50;89.60;;;;;;5054670;28;19915;-70
2023/08/31 12:41:59;;;;;;;;;;;19.60;89.70;;;;;;5054551;28;20352;-72
2023/08/31 12:44:25;;;;;;;;;;;19.50;89.60;;;;;;5054522;28;20071;-66
2023/08/31 12:46:51;;;;;;;;;;;19.50;89.60;;;;;;5054499;28;20371;-71
2023/08/31 12:49:17;;;;;;;;;;;19.60;89.60;;;;;;5054399;28;19913;-70
2023/08/31 12:51:42;;;;;;;;;;;19.50;89.60;;;;;;5054001;28;19920;-71
2023/08/31 12:54:08;;;;;;;;;;;19.50;89.50;;;;;;5054131;28;19917;-71
2023/08/31 12:56:35;;;;;;;;;;;19.60;89.60;;;;;;5053547;28;20294;-71
2023/08/31 12:59:00;;;;;;;;;;;19.60;89.60;;;;;;5053839;28;20368;-71
2023/08/31 13:01:26;;;;;;;;;;;19.50;89.50;;;;;;5053896;28;19915;-70
2023/08/31 13:03:52;;;;;;;;;;;19.60;89.60;;;;;;5054617;28;19912;-70
2023/08/31 13:06:17;;;;;;;;;;;19.60;89.60;;;;;;5053721;28;20351;-72
2023/08/31 13:08:44;;;;;;;;;;;19.50;89.50;;;;;;5053573;28;19948;-72
2023/08/31 13:11:10;;;;;;;;;;;19.60;89.60;;;;;;5054019;28;19978;-72
2023/08/31 13:13:35;;;;;;;;;;;19.60;89.60;;;;;;5054110;28;20348;-71
2023/08/31 13:16:02;;;;;;;;;;;19.60;89.60;;;;;;5053827;28;19913;-71
2023/08/31 13:18:28;;;;;;;;;;;19.50;89.50;;;;;;5053910;28;19909;-71
2023/08/31 13:20:53;;;;;;;;;;;19.50;89.50;;;;;;5053521;28;19908;-72
2023/08/31 13:23:20;;;;;;;;;;;19.50;89.50;;;;;;5053851;28;19908;-68
2023/08/31 13:25:45;;;;;;;;;;;19.50;89.50;;;;;;5053819;28;19916;-71
2023/08/31 13:28:11;;;;;;;;;;;19.50;89.50;;;;;;5053794;28;20302;-70
2023/08/31 13:30:36;;;;;;;;;;;19.60;89.60;;;;;;5053690;28;19921;-71
2023/08/31 13:33:04;;;;;;;;;;;19.50;89.50;;;;;;5053364;28;19916;-71
2023/08/31 13:35:29;;;;;;;;;;;19.60;89.60;;;;;;5053758;28;19913;-72
2023/08/31 13:37:55;;;;;;;;;;;19.50;89.50;;;;;;5053718;28;19963;-72
2023/08/31 13:40:20;;;;;;;;;;;19.50;89.50;;;;;;5054012;28;20405;-70
2023/08/31 13:43:04;;;;;;;;;;;19.60;89.50;;;;;;5053526;28;19909;-71
2023/08/31 13:45:30;;;;;;;;;;;19.50;89.50;;;;;;5054004;28;20302;-69
2023/08/31 13:47:56;;;;;;;;;;;19.60;89.50;;;;;;5053901;28;20318;-69
2023/08/31 13:50:21;;;;;;;;;;;19.60;89.50;;;;;;5053772;28;19916;-67
2023/08/31 13:52:47;;;;;;;;;;;19.50;89.50;;;;;;5053294;28;19912;-68
2023/08/31 13:55:12;;;;;;;;;;;19.50;89.50;;;;;;5053259;28;19916;-69
2023/08/31 13:57:38;;;;;;;;;;;19.60;89.50;;;;;;5053629;28;19956;-67
2023/08/31 14:00:05;;;;;;;;;;;19.60;89.50;;;;;;5053599;28;19908;-69
2023/08/31 14:02:30;;;;;;;;;;;19.60;89.50;;;;;;5053473;28;20380;-69
2023/08/31 14:04:56;;;;;;;;;;;19.60;89.50;;;;;;5053144;28;19952;-69
2023/08/31 14:07:22;;;;;;;;;;;19.60;89.50;;;;;;5053182;28;20344;-67
2023/08/31 14:09:47;;;;;;;;;;;19.50;89.40;;;;;;5052947;28;19909;-69
2023/08/31 14:12:13;;;;;;;;;;;19.50;89.40;;;;;;5052875;28;19912;-68